Time;durP1;ratioP1;P1;durP2;ratioP2;P2;SDS_P1;SDS_P2;PMS_P1;PMS_P2;Temp;Humidity;BMP_temperature;BMP_pressure;BME280_temperature;BME280_humidity;BME280_pressure;Samples;Min_cycle;Max_cycle;Signal;HPM_P1;HPM_P2
2022/09/26 00:01:15;;;;;;;9.17;8.43;;;;;;;;;;1946008;73;26773;-86
2022/09/26 00:03:44;;;;;;;8.73;8.03;;;;;;;;;;1945882;74;26254;-86
2022/09/26 00:06:14;;;;;;;9.80;8.97;;;;;;;;;;1905121;75;26212;-86
2022/09/26 00:08:43;;;;;;;9.13;8.30;;;;;;;;;;1893517;76;26339;-86
2022/09/26 00:11:13;;;;;;;8.07;7.50;;;;;;;;;;1916333;75;26697;-86
2022/09/26 00:13:42;;;;;;;8.63;7.90;;;;;;;;;;1946034;73;26184;-85
2022/09/26 00:16:12;;;;;;;8.20;7.60;;;;;;;;;;1945819;73;26209;-86
2022/09/26 00:18:41;;;;;;;8.47;7.80;;;;;;;;;;1905214;75;26324;-86
2022/09/26 00:21:12;;;;;;;8.47;7.80;;;;;;;;;;1893539;76;26239;-86
2022/09/26 00:23:41;;;;;;;9.20;8.53;;;;;;;;;;1916319;75;26645;-86
2022/09/26 00:26:10;;;;;;;8.40;8.00;;;;;;;;;;1945861;73;26659;-85
2022/09/26 00:28:38;;;;;;;8.37;7.90;;;;;;;;;;1945932;73;26637;-86
2022/09/26 00:31:09;;;;;;;9.20;8.73;;;;;;;;;;1905250;75;26262;-85
2022/09/26 00:33:37;;;;;;;8.77;8.37;;;;;;;;;;1893559;76;26344;-86
2022/09/26 00:36:06;;;;;;;8.93;8.43;;;;;;;;;;1916360;75;26217;-86
2022/09/26 00:38:34;;;;;;;9.40;8.73;;;;;;;;;;1916443;75;26275;-86
2022/09/26 00:41:03;;;;;;;9.33;8.63;;;;;;;;;;1916613;75;26300;-85
2022/09/26 00:43:33;;;;;;;8.80;8.30;;;;;;;;;;1945837;73;26180;-86
2022/09/26 00:46:03;;;;;;;8.60;8.10;;;;;;;;;;1945966;72;26326;-86
2022/09/26 00:48:33;;;;;;;8.87;8.30;;;;;;;;;;1949719;73;26190;-86
2022/09/26 00:51:02;;;;;;;8.93;8.33;;;;;;;;;;1893462;76;26297;-86
2022/09/26 00:53:32;;;;;;;9.37;8.83;;;;;;;;;;1916509;75;26308;-86
2022/09/26 00:56:02;;;;;;;9.17;8.57;;;;;;;;;;1916553;75;26670;-86
2022/09/26 00:58:32;;;;;;;8.87;8.17;;;;;;;;;;1916442;74;26320;-85
2022/09/26 01:01:01;;;;;;;8.70;8.23;;;;;;;;;;1946033;73;26282;-86
2022/09/26 01:03:31;;;;;;;9.20;8.60;;;;;;;;;;1946055;74;26664;-86
2022/09/26 01:05:59;;;;;;;9.00;8.30;;;;;;;;;;1905048;75;26287;-86
2022/09/26 01:08:31;;;;;;;9.53;8.37;;;;;;;;;;1893458;76;26690;-85
2022/09/26 01:11:00;;;;;;;8.30;7.90;;;;;;;;;;1916350;75;26704;-85
2022/09/26 01:13:31;;;;;;;9.30;8.60;;;;;;;;;;1916322;75;26199;-85
2022/09/26 01:15:59;;;;;;;8.80;8.20;;;;;;;;;;1945756;73;26225;-84
2022/09/26 01:18:28;;;;;;;8.90;8.20;;;;;;;;;;1894729;74;26239;-86
2022/09/26 01:20:58;;;;;;;8.83;8.13;;;;;;;;;;1945826;73;26290;-84
2022/09/26 01:23:50;;;;;;;8.83;8.13;;;;;;;;;;1949827;73;26247;-85
2022/09/26 01:26:26;;;;;;;8.43;7.87;;;;;;;;;;1893597;75;26289;-85
2022/09/26 01:29:00;;;;;;;8.20;7.80;;;;;;;;;;1945760;73;26185;-87
2022/09/26 01:31:30;;;;;;;8.20;7.70;;;;;;;;;;1944823;73;26195;-87
2022/09/26 01:34:00;;;;;;;7.87;7.47;;;;;;;;;;1945074;74;26192;-86
2022/09/26 01:37:00;;;;;;;8.47;7.80;;;;;;;;;;1946047;74;26265;-87
2022/09/26 01:39:43;;;;;;;8.43;7.83;;;;;;;;;;1895929;73;26266;-86
2022/09/26 01:42:16;;;;;;;8.20;7.53;;;;;;;;;;1945794;74;26168;-85
2022/09/26 01:44:48;;;;;;;11.17;8.03;;;;;;;;;;1945916;72;26269;-85
2022/09/26 01:47:18;;;;;;;8.60;7.90;;;;;;;;;;1949891;73;26182;-86
2022/09/26 01:49:48;;;;;;;8.20;7.57;;;;;;;;;;1893857;75;26732;-86
2022/09/26 01:52:19;;;;;;;8.10;7.40;;;;;;;;;;1945884;73;26732;-86
2022/09/26 01:54:49;;;;;;;9.00;8.20;;;;;;;;;;1945914;74;26731;-85
2022/09/26 01:57:18;;;;;;;8.50;7.73;;;;;;;;;;1945887;73;26227;-86
2022/09/26 01:59:49;;;;;;;9.47;7.60;;;;;;;;;;1949939;73;26271;-85
2022/09/26 02:02:19;;;;;;;8.97;8.40;;;;;;;;;;1893709;75;26363;-85
2022/09/26 02:04:49;;;;;;;8.07;7.63;;;;;;;;;;1945965;74;26348;-85
2022/09/26 02:07:19;;;;;;;6.90;6.40;;;;;;;;;;1946038;74;26211;-85
2022/09/26 02:09:49;;;;;;;7.30;6.80;;;;;;;;;;1945941;73;26346;-84
2022/09/26 02:12:19;;;;;;;7.77;7.07;;;;;;;;;;1949834;73;26235;-85
2022/09/26 02:14:50;;;;;;;9.07;6.90;;;;;;;;;;1893459;76;26299;-85
2022/09/26 02:17:21;;;;;;;7.60;7.10;;;;;;;;;;1945940;74;26184;-86
2022/09/26 02:19:52;;;;;;;7.60;7.03;;;;;;;;;;1945826;74;26256;-86
2022/09/26 02:22:21;;;;;;;7.40;6.87;;;;;;;;;;1945951;74;26209;-85
2022/09/26 02:24:49;;;;;;;7.93;7.10;;;;;;;;;;1905232;75;26718;-85
2022/09/26 02:27:17;;;;;;;7.10;6.70;;;;;;;;;;1893521;76;26709;-85
2022/09/26 02:29:46;;;;;;;7.27;6.67;;;;;;;;;;1916413;75;26198;-85
2022/09/26 02:32:15;;;;;;;7.70;7.10;;;;;;;;;;1946019;73;26177;-86
2022/09/26 02:34:46;;;;;;;6.03;5.53;;;;;;;;;;1946020;73;26235;-85
2022/09/26 02:37:15;;;;;;;7.00;6.53;;;;;;;;;;1905447;75;26272;-85
2022/09/26 02:39:45;;;;;;;7.03;6.47;;;;;;;;;;1893993;76;26259;-84
2022/09/26 02:42:16;;;;;;;9.40;6.60;;;;;;;;;;1947496;74;26200;-84
2022/09/26 02:44:49;;;;;;;7.10;6.70;;;;;;;;;;1946305;72;26216;-85
2022/09/26 02:47:22;;;;;;;7.27;6.67;;;;;;;;;;1946419;73;26235;-84
2022/09/26 02:49:56;;;;;;;6.83;6.20;;;;;;;;;;1949199;73;26643;-85
2022/09/26 02:52:30;;;;;;;6.50;6.00;;;;;;;;;;1894050;75;26194;-85
2022/09/26 02:55:00;;;;;;;6.10;5.60;;;;;;;;;;1916920;75;26231;-85
2022/09/26 02:57:31;;;;;;;6.47;5.60;;;;;;;;;;1916186;75;26210;-85
2022/09/26 03:00:01;;;;;;;6.83;5.87;;;;;;;;;;1947343;73;26250;-84
2022/09/26 03:02:34;;;;;;;5.70;5.30;;;;;;;;;;1946999;74;26193;-85
2022/09/26 03:05:03;;;;;;;6.17;5.23;;;;;;;;;;1946386;74;26235;-84
2022/09/26 03:07:33;;;;;;;6.20;5.70;;;;;;;;;;1904981;75;26211;-85
2022/09/26 03:10:03;;;;;;;6.57;5.93;;;;;;;;;;1893509;76;26679;-84
2022/09/26 03:12:33;;;;;;;6.13;5.63;;;;;;;;;;1916248;75;26292;-84
2022/09/26 03:15:03;;;;;;;7.07;6.10;;;;;;;;;;1945816;74;26164;-84
2022/09/26 03:17:33;;;;;;;6.20;5.50;;;;;;;;;;1945755;73;26230;-84
2022/09/26 03:20:03;;;;;;;5.87;5.37;;;;;;;;;;1904947;75;26187;-84
2022/09/26 03:22:32;;;;;;;5.80;5.40;;;;;;;;;;1858922;76;26622;-84
2022/09/26 03:25:00;;;;;;;5.97;5.47;;;;;;;;;;1916425;75;26717;-84
2022/09/26 03:27:30;;;;;;;5.53;4.93;;;;;;;;;;1916379;75;26678;-85
2022/09/26 03:29:59;;;;;;;5.80;4.97;;;;;;;;;;1916473;75;26311;-83
2022/09/26 03:32:28;;;;;;;5.57;5.17;;;;;;;;;;1916399;75;26256;-84
2022/09/26 03:34:56;;;;;;;5.23;4.73;;;;;;;;;;1945831;74;26226;-85
2022/09/26 03:37:25;;;;;;;5.37;4.73;;;;;;;;;;1945886;74;26363;-86
2022/09/26 03:39:53;;;;;;;6.57;4.70;;;;;;;;;;1904921;75;26276;-85
2022/09/26 03:42:23;;;;;;;5.50;4.77;;;;;;;;;;1893460;76;26215;-85
2022/09/26 03:44:52;;;;;;;5.10;4.70;;;;;;;;;;1945844;74;26228;-86
2022/09/26 03:47:20;;;;;;;5.90;4.80;;;;;;;;;;1945723;74;26267;-85
2022/09/26 03:49:49;;;;;;;8.43;5.17;;;;;;;;;;1945925;73;26173;-87
2022/09/26 03:52:17;;;;;;;5.17;4.67;;;;;;;;;;1905064;75;26277;-87
2022/09/26 03:54:46;;;;;;;5.57;4.90;;;;;;;;;;1893453;76;26230;-87
2022/09/26 03:57:15;;;;;;;5.87;4.83;;;;;;;;;;1945760;73;26171;-86
2022/09/26 03:59:44;;;;;;;5.10;4.70;;;;;;;;;;1945666;74;26334;-87
2022/09/26 04:02:13;;;;;;;6.13;4.27;;;;;;;;;;1807405;74;609720;-86
2022/09/26 04:04:41;;;;;;;4.47;4.20;;;;;;;;;;1795942;80;26704;-86
2022/09/26 04:07:10;;;;;;;4.60;4.07;;;;;;;;;;1795805;80;26696;-86
2022/09/26 04:09:38;;;;;;;4.40;4.10;;;;;;;;;;1795879;80;26693;-86
2022/09/26 04:12:07;;;;;;;4.03;3.73;;;;;;;;;;1795770;80;26233;-87
2022/09/26 04:14:37;;;;;;;4.00;3.60;;;;;;;;;;1795842;80;26225;-85
2022/09/26 04:17:05;;;;;;;3.87;3.57;;;;;;;;;;1795834;80;26237;-85
2022/09/26 04:19:33;;;;;;;3.93;3.63;;;;;;;;;;1795759;80;26237;-85
2022/09/26 04:22:02;;;;;;;4.40;4.10;;;;;;;;;;1796028;80;26217;-85
2022/09/26 04:24:31;;;;;;;4.00;3.70;;;;;;;;;;1795849;80;26217;-85
2022/09/26 04:27:00;;;;;;;4.70;3.90;;;;;;;;;;1795770;80;26692;-86
2022/09/26 04:29:28;;;;;;;4.97;3.40;;;;;;;;;;1795881;80;26331;-86
2022/09/26 04:34:58;;;;;;;2.97;2.77;;;;;;;12.27;100.00;98832.36;2023583;71;27583;-86
2022/09/26 04:37:29;;;;;;;3.30;3.00;;;;;;;12.30;100.00;98832.48;1983381;72;26153;-86
2022/09/26 04:39:59;;;;;;;3.10;2.90;;;;;;;12.31;100.00;98810.45;1980776;72;26733;-85
2022/09/26 04:42:30;;;;;;;3.07;2.80;;;;;;;12.31;100.00;98802.09;1980559;72;26165;-85
2022/09/26 04:48:02;;;;;;;2.93;2.77;;;;;;;12.35;100.00;98779.13;2060981;69;27613;-86
2022/09/26 04:50:33;;;;;;;2.80;2.60;;;;;;;12.38;100.00;98797.91;1940890;73;26172;-87
2022/09/26 04:53:05;;;;;;;2.80;2.60;;;;;;;12.39;100.00;98800.36;2016698;71;26174;-85
2022/09/26 04:55:35;;;;;;;2.40;2.30;;;;;;;12.42;100.00;98783.53;2016730;71;26219;-86
2022/09/26 04:58:05;;;;;;;2.60;2.40;;;;;;;12.42;100.00;98758.47;2016756;71;26807;-86
2022/09/26 05:00:35;;;;;;;2.80;2.30;;;;;;;12.42;100.00;98763.46;2016804;71;26679;-85
2022/09/26 05:03:07;;;;;;;2.10;2.00;;;;;;;12.44;100.00;98755.59;2016633;71;26219;-85
2022/09/26 05:05:37;;;;;;;2.10;2.00;;;;;;;12.46;100.00;98749.66;2016615;71;26700;-86
2022/09/26 05:08:08;;;;;;;2.30;2.20;;;;;;;12.50;100.00;98695.70;2016653;71;26642;-86
2022/09/26 05:10:38;;;;;;;2.30;2.20;;;;;;;12.50;100.00;98694.89;2016612;71;26616;-86
2022/09/26 05:13:08;;;;;;;2.27;2.20;;;;;;;12.51;100.00;98693.16;2016656;71;26253;-87
2022/09/26 05:15:41;;;;;;;2.80;2.20;;;;;;;12.51;100.00;98695.94;2016652;71;26186;-86
2022/09/26 05:18:12;;;;;;;2.70;2.50;;;;;;;12.53;100.00;98692.23;2016621;71;26183;-86
2022/09/26 05:20:47;;;;;;;2.60;2.40;;;;;;;12.56;100.00;98692.11;2016714;71;26175;-86
2022/09/26 05:29:11;;;;;;;2.57;2.43;;;;;;;12.62;100.00;98664.27;2023423;71;27755;-86
2022/09/26 05:31:42;;;;;;;2.60;2.50;;;;;;;12.63;100.00;98670.84;1883205;75;26179;-86
2022/09/26 05:34:14;;;;;;;2.20;2.10;;;;;;;12.62;100.00;98666.44;1938082;74;26182;-87
2022/09/26 05:49:00;;;;;;;2.50;2.40;;;;;;;12.79;100.00;98643.87;1977813;72;27772;-84
2022/09/26 05:51:32;;;;;;;2.57;2.37;;;;;;;12.77;100.00;98656.55;1916799;75;26171;-85
2022/09/26 05:54:02;;;;;;;2.40;2.30;;;;;;;12.79;100.00;98656.41;1916723;75;26191;-85
2022/09/26 05:56:36;;;;;;;2.57;2.40;;;;;;;12.77;100.00;98659.33;1916822;75;26248;-86
2022/09/26 05:59:05;;;;;;;2.50;2.30;;;;;;;12.78;100.00;98663.16;1916658;75;26315;-86
2022/09/26 06:01:35;;;;;;;3.33;2.47;;;;;;;12.78;100.00;98661.77;1916862;75;26332;-84
2022/09/26 06:04:05;;;;;;;3.10;2.90;;;;;;;12.76;100.00;98661.88;1916897;75;26191;-89
2022/09/26 06:06:36;;;;;;;3.40;3.10;;;;;;;12.79;100.00;98662.59;1916810;75;26602;-86
2022/09/26 06:09:06;;;;;;;4.03;3.00;;;;;;;12.81;100.00;98656.06;1916792;75;26191;-83
2022/09/26 06:11:36;;;;;;;4.23;3.77;;;;;;;12.83;100.00;98653.75;1916754;75;26276;-83
2022/09/26 06:14:08;;;;;;;5.03;3.80;;;;;;;12.84;100.00;98655.92;1916742;75;26273;-83
2022/09/26 06:16:39;;;;;;;4.20;3.80;;;;;;;12.87;100.00;98658.84;1916806;75;26661;-83
2022/09/26 06:19:09;;;;;;;3.90;3.60;;;;;;;12.87;100.00;98660.23;1916728;75;26203;-85
2022/09/26 06:21:42;;;;;;;3.90;3.60;;;;;;;12.84;100.00;98658.71;1916789;75;26708;-84
2022/09/26 06:24:11;;;;;;;5.70;4.17;;;;;;;12.83;100.00;98652.94;1916779;75;26385;-85
2022/09/26 06:26:42;;;;;;;4.87;4.37;;;;;;;12.81;100.00;98649.09;1916924;75;26699;-87
2022/09/26 06:29:12;;;;;;;6.40;4.50;;;;;;;12.84;100.00;98638.63;1916751;75;26203;-74
2022/09/26 06:31:42;;;;;;;8.37;4.40;;;;;;;12.89;100.00;98635.60;1916601;75;26179;-74
2022/09/26 06:34:13;;;;;;;7.67;4.90;;;;;;;12.91;100.00;98621.33;1916601;75;26721;-74
2022/09/26 06:36:45;;;;;;;8.67;5.13;;;;;;;12.91;100.00;98623.53;1919438;75;26249;-85
2022/09/26 06:39:15;;;;;;;6.23;5.37;;;;;;;12.90;100.00;98628.87;1917878;75;26252;-85
2022/09/26 06:41:45;;;;;;;6.67;6.13;;;;;;;12.93;100.00;98637.09;1917050;75;26186;-86
2022/09/26 06:47:14;;;;;;;8.33;5.63;;;;;;;12.92;100.00;98622.95;2025532;69;28623;-80
2022/09/26 06:49:49;;;;;;;6.30;5.80;;;;;;;12.98;100.00;98632.66;1989632;72;26244;-83
2022/09/26 06:52:22;;;;;;;7.67;6.40;;;;;;;13.21;100.00;98640.14;1989765;72;26667;-84
2022/09/26 06:54:53;;;;;;;8.90;6.77;;;;;;;13.19;100.00;98644.44;1989825;72;26179;-86
2022/09/26 06:57:23;;;;;;;7.10;6.43;;;;;;;13.20;100.00;98646.06;1989643;72;26186;-88
2022/09/26 06:59:54;;;;;;;8.90;7.50;;;;;;;13.11;100.00;98649.59;1989532;72;26167;-89
2022/09/26 07:02:25;;;;;;;8.40;7.60;;;;;;;13.16;100.00;98656.30;1989681;72;26175;-87
2022/09/26 07:04:55;;;;;;;7.87;7.27;;;;;;;13.23;100.00;98660.67;1989810;72;26196;-87
2022/09/26 07:07:26;;;;;;;8.10;7.30;;;;;;;13.40;100.00;98664.53;1990044;72;26175;-87
2022/09/26 07:09:56;;;;;;;10.93;8.30;;;;;;;13.62;100.00;98662.55;1990057;72;26630;-87
2022/09/26 07:12:27;;;;;;;9.50;8.03;;;;;;;13.70;100.00;98659.35;1989948;72;26710;-87
2022/09/26 07:14:59;;;;;;;11.27;6.77;;;;;;;13.54;100.00;98668.30;1989974;72;26207;-86
2022/09/26 07:17:34;;;;;;;8.93;6.47;;;;;;;13.48;100.00;98665.53;1989864;72;26199;-86
2022/09/26 07:20:09;;;;;;;11.63;7.77;;;;;;;13.60;100.00;98662.11;1989855;72;26630;-87
2022/09/26 07:22:42;;;;;;;11.70;7.93;;;;;;;13.61;100.00;98660.11;1990083;72;26176;-87
2022/09/26 07:25:13;;;;;;;9.57;7.27;;;;;;;13.50;100.00;98655.66;1989962;72;26642;-87
2022/09/26 07:27:45;;;;;;;8.63;7.13;;;;;;;13.47;100.00;98647.20;1989957;72;26243;-87
2022/09/26 07:30:15;;;;;;;14.67;7.00;;;;;;;13.43;100.00;98654.66;1989519;71;26690;-87
2022/09/26 07:32:47;;;;;;;11.97;7.13;;;;;;;13.50;100.00;98645.08;1989826;72;26272;-88
2022/09/26 07:35:18;;;;;;;9.00;6.97;;;;;;;13.42;100.00;98653.03;1989947;72;26293;-87
2022/09/26 07:37:52;;;;;;;10.07;7.00;;;;;;;13.49;100.00;98647.05;1990081;72;26259;-87
2022/09/26 07:40:22;;;;;;;12.57;7.80;;;;;;;13.46;100.00;98648.36;1989987;72;26638;-89
2022/09/26 07:42:52;;;;;;;10.97;7.20;;;;;;;13.57;100.00;98648.86;1989728;72;26635;-88
2022/09/26 07:50:10;;;;;;;9.50;7.40;;;;;;;13.79;100.00;98639.64;1982160;72;26430;-88
2022/09/26 07:50:59;;;;;;;11.03;7.23;;;;;;;13.92;100.00;98667.10;1976687;72;26183;-88
2022/09/26 07:53:29;;;;;;;8.33;7.33;;;;;;;13.90;100.00;98663.06;1976291;72;26691;-88
2022/09/26 07:56:07;;;;;;;9.73;7.10;;;;;;;13.76;100.00;98666.87;1932892;74;26195;-88
2022/09/26 07:58:40;;;;;;;14.17;7.80;;;;;;;14.04;100.00;98672.58;1932986;74;26339;-89
2022/09/26 08:01:12;;;;;;;11.63;7.53;;;;;;;14.28;100.00;98675.77;1872012;76;26631;-88
2022/09/26 08:03:43;;;;;;;13.03;7.93;;;;;;;13.91;100.00;98671.64;1914910;74;26184;-89
2022/09/26 08:06:16;;;;;;;13.03;7.73;;;;;;;13.56;100.00;98676.52;1933874;74;26247;-88
2022/09/26 08:08:50;;;;;;;13.10;8.03;;;;;;;13.51;100.00;98671.81;1933176;74;26189;-89
2022/09/26 08:11:22;;;;;;;12.67;8.27;;;;;;;13.59;100.00;98668.85;1898046;75;26176;-88
2022/09/26 08:13:52;;;;;;;12.37;7.67;;;;;;;13.35;100.00;98670.98;1871934;76;26267;-88
2022/09/26 08:16:25;;;;;;;11.83;7.60;;;;;;;13.26;100.00;98661.95;1932746;74;26239;-90
2022/09/26 08:19:00;;;;;;;10.93;7.53;;;;;;;13.44;100.00;98668.23;1914586;74;26181;-89
2022/09/26 08:21:32;;;;;;;9.93;7.47;;;;;;;14.02;100.00;98665.75;1883400;76;26203;-90
2022/09/26 08:24:04;;;;;;;9.80;8.17;;;;;;;14.70;100.00;98654.20;1939492;73;26185;-91
2022/09/26 08:26:38;;;;;;;13.20;7.57;;;;;;;15.54;100.00;98650.13;1939632;74;26192;-87
2022/09/26 08:32:06;;;;;;;12.07;8.23;;;;;;;16.88;100.00;98628.48;2060177;69;25161;-85
2022/09/26 08:34:37;;;;;;;11.53;8.77;;;;;;;16.08;100.00;98628.30;1981650;72;26186;-84
2022/09/26 08:37:08;;;;;;;11.67;8.80;;;;;;;15.99;100.00;98620.75;1981387;72;26185;-81
2022/09/26 08:39:39;;;;;;;11.83;9.03;;;;;;;15.86;100.00;98620.73;1981520;72;26287;-82
2022/09/26 08:42:22;;;;;;;14.10;8.70;;;;;;;15.50;100.00;98623.48;1981499;72;26985;-87
2022/09/26 08:48:05;;;;;;;11.90;8.60;;;;;;;15.16;100.00;98606.23;2023791;71;27751;-86
2022/09/26 08:53:46;;;;;;;11.57;9.17;;;;;;;15.15;100.00;98608.21;2053621;69;27971;-87
2022/09/26 08:59:49;;;;;;;11.33;7.90;;;;;;;15.36;100.00;98614.83;2013865;71;29808;-84
2022/09/26 09:02:24;;;;;;;13.57;8.87;;;;;;;15.25;100.00;98625.80;1908266;75;26782;-85
2022/09/26 09:04:58;;;;;;;14.07;8.97;;;;;;;15.14;100.00;98623.39;1910017;75;26260;-85
2022/09/26 09:07:31;;;;;;;14.00;8.80;;;;;;;15.00;100.00;98631.48;1909736;75;26688;-85
2022/09/26 09:10:04;;;;;;;15.77;8.03;;;;;;;14.53;100.00;98635.88;1909840;75;26705;-84
2022/09/26 09:12:42;;;;;;;13.40;7.93;;;;;;;14.60;100.00;98643.00;1909845;75;26782;-83
2022/09/26 09:15:29;;;;;;;12.40;8.63;;;;;;;14.98;100.00;98642.21;1908985;75;26327;-86
2022/09/26 09:21:08;;;;;;;15.00;8.67;;;;;;;14.39;100.00;98644.73;2006181;71;27846;-76
2022/09/26 09:23:55;;;;;;;17.83;8.67;;;;;;;14.60;100.00;98651.38;1939504;73;26172;-77
2022/09/26 09:26:28;;;;;;;12.57;8.53;;;;;;;15.02;100.00;98653.69;1935434;73;26626;-77
2022/09/26 09:29:14;;;;;;;12.53;8.00;;;;;;;15.06;100.00;98643.19;1933295;73;26209;-77
2022/09/26 09:31:45;;;;;;;14.93;7.90;;;;;;;14.73;100.00;98641.70;1936504;73;26210;-76
2022/09/26 09:34:20;;;;;;;11.53;8.27;;;;;;;15.55;100.00;98634.97;1879566;75;26252;-75
2022/09/26 09:36:53;;;;;;;14.00;9.13;;;;;;;15.49;100.00;98638.03;1884900;75;26228;-77
2022/09/26 09:39:26;;;;;;;11.23;9.00;;;;;;;15.02;100.00;98641.70;1895645;75;26655;-77
2022/09/26 09:42:00;;;;;;;12.77;8.50;;;;;;;14.89;100.00;98642.44;1887597;75;26805;-77
2022/09/26 09:44:38;;;;;;;15.40;8.67;;;;;;;14.62;100.00;98641.25;1884196;75;26301;-77
2022/09/26 09:47:14;;;;;;;11.27;8.13;;;;;;;15.16;100.00;98642.58;1899344;74;26218;-77
2022/09/26 09:49:46;;;;;;;14.40;8.33;;;;;;;15.30;100.00;98648.46;1898935;74;26725;-78
2022/09/26 09:52:24;;;;;;;14.00;7.97;;;;;;;15.19;100.00;98664.23;1900545;74;26346;-78
2022/09/26 09:55:03;;;;;;;15.10;7.87;;;;;;;14.88;100.00;98649.81;1902251;74;26315;-77
2022/09/26 09:58:00;;;;;;;13.67;8.37;;;;;;;15.45;100.00;98640.55;1898787;74;26210;-77
2022/09/26 10:00:32;;;;;;;15.37;8.53;;;;;;;15.74;100.00;98646.12;1899896;74;24233;-76
2022/09/26 10:03:06;;;;;;;16.33;8.87;;;;;;;15.84;100.00;98649.09;1902941;74;26359;-77
2022/09/26 10:05:41;;;;;;;13.23;9.57;;;;;;;15.18;100.00;98652.23;1864139;76;26288;-77
2022/09/26 10:08:18;;;;;;;17.07;9.53;;;;;;;15.17;100.00;98640.82;1904079;75;26680;-76
2022/09/26 10:10:53;;;;;;;13.70;8.87;;;;;;;15.01;100.00;98647.09;1903996;74;26215;-77
2022/09/26 10:16:34;;;;;;;9.03;7.93;;;;;;;15.56;100.00;98636.59;1977940;72;27553;-76
2022/09/26 10:19:07;;;;;;;11.37;8.37;;;;;;;15.60;100.00;98632.67;1950324;73;26203;-76
2022/09/26 10:21:41;;;;;;;13.63;8.23;;;;;;;15.53;100.00;98630.34;1909470;75;26662;-76
2022/09/26 10:24:26;;;;;;;13.83;7.90;;;;;;;15.91;100.00;98634.42;1897372;75;26271;-76
2022/09/26 10:26:56;;;;;;;15.40;9.07;;;;;;;15.88;100.00;98626.75;1909946;75;26276;-78
2022/09/26 10:32:46;;;;;;;13.83;8.77;;;;;;;15.69;100.00;98625.44;1977793;72;27565;-78
2022/09/26 10:35:23;;;;;;;15.47;9.63;;;;;;;15.33;100.00;98628.95;1950454;73;26280;-77
2022/09/26 10:38:01;;;;;;;11.37;8.80;;;;;;;15.48;100.00;98632.24;1909479;75;24129;-78
2022/09/26 10:40:47;;;;;;;12.30;9.17;;;;;;;15.99;100.00;98623.55;1897581;75;26368;-77
2022/09/26 10:43:28;;;;;;;15.17;8.13;;;;;;;15.44;100.00;98623.56;1909582;75;26188;-78
2022/09/26 10:49:06;;;;;;;11.77;8.20;;;;;;;15.93;100.00;98622.23;2022444;71;27539;-77
2022/09/26 10:54:45;;;;;;;12.07;7.57;;;;;;;15.11;100.00;98628.89;1977714;72;27757;-77
2022/09/26 10:57:27;;;;;;;11.73;7.63;;;;;;;15.11;100.00;98628.89;1916645;75;26231;-77
2022/09/26 11:00:00;;;;;;;9.07;8.10;;;;;;;15.06;100.00;98632.79;1916860;75;26169;-75
2022/09/26 11:02:30;;;;;;;11.57;7.90;;;;;;;14.75;100.00;98624.58;1916825;75;26641;-76
2022/09/26 11:07:52;;;;;;;14.00;8.07;;;;;;;16.36;100.00;98619.52;1916726;75;26303;-75
2022/09/26 11:10:27;;;;;;;14.90;7.93;;;;;;;16.00;100.00;98619.58;1916691;75;26201;-75
2022/09/26 11:16:03;;;;;;;16.90;7.13;;;;;;;15.21;100.00;98617.93;1977742;72;28045;-76
2022/09/26 11:22:14;;;;;;;13.23;7.67;;;;;;;15.17;100.00;98624.05;2008134;71;28622;-76
2022/09/26 11:24:49;;;;;;;9.83;7.50;;;;;;;15.72;100.00;98634.47;1993495;72;26398;-76
2022/09/26 11:27:30;;;;;;;11.47;7.03;;;;;;;15.47;100.00;98641.00;1984547;72;26335;-76
2022/09/26 11:30:07;;;;;;;11.37;8.07;;;;;;;14.80;100.00;98632.67;1978081;72;26741;-77
2022/09/26 11:32:39;;;;;;;11.53;8.03;;;;;;;14.30;100.00;98653.86;1985836;72;26313;-76
2022/09/26 11:35:15;;;;;;;10.67;7.57;;;;;;;14.49;100.00;98641.97;1907149;74;26222;-75
2022/09/26 11:37:57;;;;;;;11.30;7.37;;;;;;;14.96;100.00;98650.98;1904129;74;26236;-76
2022/09/26 11:40:35;;;;;;;11.00;7.87;;;;;;;15.53;100.00;98659.14;1903949;75;26208;-75
2022/09/26 11:43:21;;;;;;;10.13;7.40;;;;;;;16.16;100.00;98641.23;1900837;74;26231;-75
2022/09/26 11:46:24;;;;;;;10.10;7.33;;;;;;;16.16;100.00;98639.02;1903848;74;26276;-76
2022/09/26 11:49:09;;;;;;;9.23;6.73;;;;;;;16.24;100.00;98634.55;1903837;74;26213;-81
2022/09/26 11:51:46;;;;;;;7.50;6.80;;;;;;;15.27;100.00;98641.63;1900932;74;26228;-78
2022/09/26 11:54:55;;;;;;;8.97;7.60;;;;;;;15.35;100.00;98649.56;1903770;75;24557;-77
2022/09/26 11:57:33;;;;;;;8.93;8.00;;;;;;;15.40;100.00;98640.26;1907065;74;24597;-76
2022/09/26 12:03:55;;;;;;;8.17;7.23;;;;;;;16.08;100.00;98632.50;2013585;71;25350;-79
2022/09/26 12:06:32;;;;;;;11.93;7.33;;;;;;;15.64;100.00;98628.53;1941574;73;24118;-76
2022/09/26 12:12:23;;;;;;;9.13;7.67;;;;;;;16.66;100.00;98626.58;1995285;71;25457;-78
2022/09/26 12:15:01;;;;;;;6.37;5.83;;;;;;;17.12;100.00;98613.94;1942493;74;24603;-78
2022/09/26 12:17:37;;;;;;;8.37;5.87;;;;;;;16.65;100.00;98615.14;1937622;74;24184;-79
2022/09/26 12:20:22;;;;;;;7.13;6.40;;;;;;;16.49;100.00;98626.51;1934169;72;24138;-80
2022/09/26 12:22:57;;;;;;;8.33;6.40;;;;;;;16.47;100.00;98620.49;1931987;74;26251;-80
2022/09/26 12:25:34;;;;;;;7.07;5.97;;;;;;;16.36;100.00;98627.33;1932875;73;24207;-80
2022/09/26 12:28:19;;;;;;;6.50;5.80;;;;;;;15.87;100.00;98632.16;1932051;73;24225;-79
2022/09/26 12:30:55;;;;;;;7.30;5.60;;;;;;;15.61;100.00;98651.09;1934875;73;26206;-79
2022/09/26 12:33:39;;;;;;;7.30;6.50;;;;;;;15.07;100.00;98676.36;1931662;73;24171;-78
2022/09/26 12:36:17;;;;;;;9.60;7.40;;;;;;;14.13;100.00;98697.52;1936599;74;26169;-78
2022/09/26 12:42:17;;;;;;;7.27;6.63;;;;;;;13.43;100.00;98706.25;2013702;71;27606;-78
2022/09/26 12:45:16;;;;;;;7.43;6.90;;;;;;;13.36;100.00;98710.22;1934464;73;26215;-78
2022/09/26 12:48:05;;;;;;;7.10;6.50;;;;;;;14.01;100.00;98699.02;1876699;76;26193;-78
2022/09/26 12:50:42;;;;;;;7.13;6.47;;;;;;;14.42;100.00;98697.64;1876498;76;26201;-80
2022/09/26 12:53:27;;;;;;;11.30;6.20;;;;;;;14.21;100.00;98693.73;1876497;76;26267;-78
2022/09/26 12:56:07;;;;;;;8.50;6.30;;;;;;;14.68;100.00;98691.46;1876298;76;26194;-78
2022/09/26 12:58:48;;;;;;;7.30;5.83;;;;;;;15.01;100.00;98693.22;1876701;76;26698;-78
2022/09/26 13:01:28;;;;;;;7.10;6.03;;;;;;;15.49;100.00;98689.80;1876872;76;24142;-78
2022/09/26 13:04:28;;;;;;;7.07;6.47;;;;;;;15.68;100.00;98680.59;1876918;76;24216;-80
2022/09/26 13:07:07;;;;;;;10.33;6.90;;;;;;;15.15;100.00;98685.11;1876931;76;26622;-79
2022/09/26 13:09:45;;;;;;;7.57;6.80;;;;;;;15.22;100.00;98680.27;1876870;76;26623;-79
2022/09/26 13:12:24;;;;;;;7.23;6.47;;;;;;;15.22;100.00;98680.27;1876609;76;26285;-79
2022/09/26 13:15:04;;;;;;;7.73;6.80;;;;;;;15.14;100.00;98670.11;1876729;76;26198;-80
2022/09/26 13:20:39;;;;;;;8.90;6.73;;;;;;;16.58;100.00;98659.89;2060822;69;27487;-74
2022/09/26 13:23:14;;;;;;;7.03;6.53;;;;;;;15.68;100.00;98666.59;2018811;71;26373;-77
2022/09/26 13:25:48;;;;;;;7.47;6.80;;;;;;;14.84;100.00;98690.27;2016240;71;26239;-76
2022/09/26 13:28:22;;;;;;;8.80;7.63;;;;;;;14.35;100.00;98693.27;2016474;71;26180;-76
2022/09/26 13:30:57;;;;;;;8.50;7.77;;;;;;;14.25;100.00;98686.86;1937871;74;26285;-76
2022/09/26 13:33:30;;;;;;;8.27;7.50;;;;;;;14.41;100.00;98682.09;2016562;71;26314;-76
2022/09/26 13:36:03;;;;;;;8.77;7.73;;;;;;;14.64;100.00;98680.80;2016578;71;26164;-77
2022/09/26 13:38:40;;;;;;;8.43;7.73;;;;;;;15.15;100.00;98684.30;1938189;74;24210;-75
2022/09/26 13:41:20;;;;;;;8.60;7.73;;;;;;;15.40;100.00;98693.41;2016297;71;26247;-77
2022/09/26 13:43:58;;;;;;;7.83;7.20;;;;;;;15.29;100.00;98691.58;2013149;71;26172;-77
2022/09/26 13:46:34;;;;;;;6.87;6.27;;;;;;;15.91;100.00;98689.02;1980543;72;26618;-77
2022/09/26 13:49:10;;;;;;;7.93;7.23;;;;;;;16.24;100.00;98695.36;1980684;72;24619;-77
2022/09/26 13:54:56;;;;;;;7.33;6.57;;;;;;;16.33;100.00;98677.70;2045806;69;27772;-76
2022/09/26 13:57:33;;;;;;;7.33;6.63;;;;;;;17.19;100.00;98677.75;2015005;71;24162;-78
2022/09/26 14:00:11;;;;;;;6.93;6.33;;;;;;;16.64;100.00;98684.43;2015710;70;24243;-77
2022/09/26 14:02:38;;;;;;;8.57;6.87;;;;;;;16.42;100.00;98680.25;2018084;70;24226;-77
2022/09/26 14:05:37;;;;;;;7.70;6.93;;;;;;;16.22;100.00;98686.52;1936832;73;24271;-76
2022/09/26 14:11:26;;;;;;;6.90;6.30;;;;;;;15.45;100.00;98693.11;1969068;72;26266;-76
2022/09/26 14:18:04;;;;;;;8.53;5.77;;;;;;;16.74;100.00;98702.56;2003051;71;25457;-77
2022/09/26 14:20:39;;;;;;;9.13;5.93;;;;;;;16.37;100.00;98714.41;1937716;73;24673;-78
2022/09/26 14:23:32;;;;;;;9.10;8.37;;;;;;;15.60;100.00;98718.61;1936813;73;26604;-76
2022/09/26 14:26:11;;;;;;;6.93;5.83;;;;;;;15.26;100.00;98723.91;1933701;73;24244;-76